sensor_id;sensor_type;location;lat;lon;timestamp;temperature;humidity
9177;DHT22;4623;54.310;10.112;2022-08-26T00:01:32;21.00;99.90
9177;DHT22;4623;54.310;10.112;2022-08-26T00:03:57;20.90;99.90
9177;DHT22;4623;54.310;10.112;2022-08-26T00:06:23;21.00;99.90
9177;DHT22;4623;54.310;10.112;2022-08-26T00:08:49;21.00;99.90
9177;DHT22;4623;54.310;10.112;2022-08-26T00:11:15;21.00;99.90
9177;DHT22;4623;54.310;10.112;2022-08-26T00:13:41;20.90;99.90
9177;DHT22;4623;54.310;10.112;2022-08-26T00:16:08;20.90;99.90
9177;DHT22;4623;54.310;10.112;2022-08-26T00:18:35;20.90;99.90
9177;DHT22;4623;54.310;10.112;2022-08-26T00:21:02;20.90;99.90
9177;DHT22;4623;54.310;10.112;2022-08-26T00:23:28;20.90;99.90
9177;DHT22;4623;54.310;10.112;2022-08-26T00:25:53;20.90;99.90
9177;DHT22;4623;54.310;10.112;2022-08-26T00:28:19;20.90;99.90
9177;DHT22;4623;54.310;10.112;2022-08-26T00:30:46;20.90;99.90
9177;DHT22;4623;54.310;10.112;2022-08-26T00:33:17;20.80;99.90
9177;DHT22;4623;54.310;10.112;2022-08-26T00:35:45;20.80;99.90
9177;DHT22;4623;54.310;10.112;2022-08-26T00:38:11;20.80;99.90
9177;DHT22;4623;54.310;10.112;2022-08-26T00:40:42;20.80;99.90
9177;DHT22;4623;54.310;10.112;2022-08-26T00:43:08;20.80;99.90
9177;DHT22;4623;54.310;10.112;2022-08-26T00:45:41;20.80;99.90
9177;DHT22;4623;54.310;10.112;2022-08-26T00:48:09;20.80;99.90
9177;DHT22;4623;54.310;10.112;2022-08-26T00:50:38;20.70;99.90
9177;DHT22;4623;54.310;10.112;2022-08-26T00:53:07;20.70;99.90
9177;DHT22;4623;54.310;10.112;2022-08-26T00:55:57;20.70;99.90
9177;DHT22;4623;54.310;10.112;2022-08-26T00:58:28;20.70;99.90
9177;DHT22;4623;54.310;10.112;2022-08-26T01:00:55;20.70;99.90
9177;DHT22;4623;54.310;10.112;2022-08-26T01:03:25;20.70;99.90
9177;DHT22;4623;54.310;10.112;2022-08-26T01:05:55;20.60;99.90
9177;DHT22;4623;54.310;10.112;2022-08-26T01:08:22;20.60;99.90
9177;DHT22;4623;54.310;10.112;2022-08-26T01:10:48;20.50;99.90
9177;DHT22;4623;54.310;10.112;2022-08-26T01:13:14;20.50;99.90
9177;DHT22;4623;54.310;10.112;2022-08-26T01:15:46;20.50;99.90
9177;DHT22;4623;54.310;10.112;2022-08-26T01:18:14;20.50;99.90
9177;DHT22;4623;54.310;10.112;2022-08-26T01:20:57;20.40;99.90
9177;DHT22;4623;54.310;10.112;2022-08-26T01:23:28;20.40;99.90
9177;DHT22;4623;54.310;10.112;2022-08-26T01:25:59;20.40;99.90
9177;DHT22;4623;54.310;10.112;2022-08-26T01:28:28;20.50;99.90
9177;DHT22;4623;54.310;10.112;2022-08-26T01:30:56;20.40;99.90
9177;DHT22;4623;54.310;10.112;2022-08-26T01:33:29;20.40;99.90
9177;DHT22;4623;54.310;10.112;2022-08-26T01:35:56;20.40;99.90
9177;DHT22;4623;54.310;10.112;2022-08-26T01:38:21;20.40;99.90
9177;DHT22;4623;54.310;10.112;2022-08-26T01:40:47;20.40;99.90
9177;DHT22;4623;54.310;10.112;2022-08-26T01:43:21;20.40;99.90
9177;DHT22;4623;54.310;10.112;2022-08-26T01:45:47;20.40;99.90
9177;DHT22;4623;54.310;10.112;2022-08-26T01:48:22;20.40;99.90
9177;DHT22;4623;54.310;10.112;2022-08-26T01:50:49;20.40;99.90
9177;DHT22;4623;54.310;10.112;2022-08-26T01:53:17;20.40;99.90
9177;DHT22;4623;54.310;10.112;2022-08-26T01:55:48;20.40;99.90
9177;DHT22;4623;54.310;10.112;2022-08-26T01:58:21;20.40;99.90
9177;DHT22;4623;54.310;10.112;2022-08-26T02:00:48;20.30;99.90
9177;DHT22;4623;54.310;10.112;2022-08-26T02:03:14;20.30;99.90
9177;DHT22;4623;54.310;10.112;2022-08-26T02:05:43;20.30;99.90
9177;DHT22;4623;54.310;10.112;2022-08-26T02:08:09;20.30;99.90
9177;DHT22;4623;54.310;10.112;2022-08-26T02:10:36;20.30;99.90
9177;DHT22;4623;54.310;10.112;2022-08-26T02:13:02;20.30;99.90
9177;DHT22;4623;54.310;10.112;2022-08-26T02:15:28;20.30;99.90
9177;DHT22;4623;54.310;10.112;2022-08-26T02:17:53;20.30;99.90
9177;DHT22;4623;54.310;10.112;2022-08-26T02:20:19;20.30;99.90
9177;DHT22;4623;54.310;10.112;2022-08-26T02:22:46;20.40;99.90
9177;DHT22;4623;54.310;10.112;2022-08-26T02:25:17;20.40;99.90
9177;DHT22;4623;54.310;10.112;2022-08-26T02:27:46;20.40;99.90
9177;DHT22;4623;54.310;10.112;2022-08-26T02:30:19;20.40;99.90
9177;DHT22;4623;54.310;10.112;2022-08-26T02:32:45;20.40;99.90
9177;DHT22;4623;54.310;10.112;2022-08-26T02:35:14;20.40;99.90
9177;DHT22;4623;54.310;10.112;2022-08-26T02:37:40;20.40;99.90
9177;DHT22;4623;54.310;10.112;2022-08-26T02:40:07;20.40;99.90
9177;DHT22;4623;54.310;10.112;2022-08-26T02:42:33;20.40;99.90
9177;DHT22;4623;54.310;10.112;2022-08-26T02:44:59;20.30;99.90
9177;DHT22;4623;54.310;10.112;2022-08-26T02:47:24;20.30;99.90
9177;DHT22;4623;54.310;10.112;2022-08-26T02:49:50;20.30;99.90
9177;DHT22;4623;54.310;10.112;2022-08-26T02:52:16;20.30;99.90
9177;DHT22;4623;54.310;10.112;2022-08-26T02:54:42;20.30;99.90
9177;DHT22;4623;54.310;10.112;2022-08-26T02:57:09;20.30;99.90
9177;DHT22;4623;54.310;10.112;2022-08-26T02:59:35;20.40;99.90
9177;DHT22;4623;54.310;10.112;2022-08-26T03:02:01;20.30;99.90
9177;DHT22;4623;54.310;10.112;2022-08-26T03:04:27;20.40;99.90
9177;DHT22;4623;54.310;10.112;2022-08-26T03:06:53;20.30;99.90
9177;DHT22;4623;54.310;10.112;2022-08-26T03:09:21;20.30;99.90
9177;DHT22;4623;54.310;10.112;2022-08-26T03:11:47;20.40;99.90
9177;DHT22;4623;54.310;10.112;2022-08-26T03:14:12;20.40;99.90
9177;DHT22;4623;54.310;10.112;2022-08-26T03:16:39;20.40;99.90
9177;DHT22;4623;54.310;10.112;2022-08-26T03:19:06;20.40;99.90
9177;DHT22;4623;54.310;10.112;2022-08-26T03:21:33;20.40;99.90
9177;DHT22;4623;54.310;10.112;2022-08-26T03:23:59;20.40;99.90
9177;DHT22;4623;54.310;10.112;2022-08-26T03:26:25;20.40;99.90
9177;DHT22;4623;54.310;10.112;2022-08-26T03:28:51;20.40;99.90
9177;DHT22;4623;54.310;10.112;2022-08-26T03:31:35;20.40;99.90
9177;DHT22;4623;54.310;10.112;2022-08-26T03:34:01;20.40;99.90
9177;DHT22;4623;54.310;10.112;2022-08-26T03:36:27;20.40;99.90
9177;DHT22;4623;54.310;10.112;2022-08-26T03:38:53;20.40;99.90
9177;DHT22;4623;54.310;10.112;2022-08-26T03:41:19;20.30;99.90
9177;DHT22;4623;54.310;10.112;2022-08-26T03:43:46;20.30;99.90
9177;DHT22;4623;54.310;10.112;2022-08-26T03:46:13;20.30;99.90
9177;DHT22;4623;54.310;10.112;2022-08-26T03:48:39;20.40;99.90
9177;DHT22;4623;54.310;10.112;2022-08-26T03:51:11;20.40;99.90
9177;DHT22;4623;54.310;10.112;2022-08-26T03:53:37;20.40;99.90
9177;DHT22;4623;54.310;10.112;2022-08-26T03:56:03;20.40;99.90
9177;DHT22;4623;54.310;10.112;2022-08-26T03:58:30;20.30;99.90
9177;DHT22;4623;54.310;10.112;2022-08-26T04:00:56;20.40;99.90
9177;DHT22;4623;54.310;10.112;2022-08-26T04:03:22;20.30;99.90
9177;DHT22;4623;54.310;10.112;2022-08-26T04:06:07;20.30;99.90
9177;DHT22;4623;54.310;10.112;2022-08-26T04:08:32;20.30;99.90
9177;DHT22;4623;54.310;10.112;2022-08-26T04:10:58;20.30;99.90
9177;DHT22;4623;54.310;10.112;2022-08-26T04:13:28;20.30;99.90
9177;DHT22;4623;54.310;10.112;2022-08-26T04:15:54;20.30;99.90
9177;DHT22;4623;54.310;10.112;2022-08-26T04:18:19;20.30;99.90
9177;DHT22;4623;54.310;10.112;2022-08-26T04:20:45;20.30;99.90
9177;DHT22;4623;54.310;10.112;2022-08-26T04:23:12;20.30;99.90
9177;DHT22;4623;54.310;10.112;2022-08-26T04:25:39;20.20;99.90
9177;DHT22;4623;54.310;10.112;2022-08-26T04:28:05;20.20;99.90
9177;DHT22;4623;54.310;10.112;2022-08-26T04:30:30;20.20;99.90
9177;DHT22;4623;54.310;10.112;2022-08-26T04:32:57;20.20;99.90
9177;DHT22;4623;54.310;10.112;2022-08-26T04:35:22;20.20;99.90
9177;DHT22;4623;54.310;10.112;2022-08-26T04:37:49;20.20;99.90
9177;DHT22;4623;54.310;10.112;2022-08-26T04:40:15;20.20;99.90
9177;DHT22;4623;54.310;10.112;2022-08-26T04:42:40;20.30;99.90
9177;DHT22;4623;54.310;10.112;2022-08-26T04:45:06;20.30;99.90
9177;DHT22;4623;54.310;10.112;2022-08-26T04:47:32;20.30;99.90
9177;DHT22;4623;54.310;10.112;2022-08-26T04:49:57;20.30;99.90
9177;DHT22;4623;54.310;10.112;2022-08-26T04:52:24;20.30;99.90
9177;DHT22;4623;54.310;10.112;2022-08-26T04:54:49;20.30;99.90
9177;DHT22;4623;54.310;10.112;2022-08-26T04:57:15;20.30;99.90
9177;DHT22;4623;54.310;10.112;2022-08-26T04:59:41;20.30;99.90
9177;DHT22;4623;54.310;10.112;2022-08-26T05:02:06;20.30;99.90
9177;DHT22;4623;54.310;10.112;2022-08-26T05:04:32;20.40;99.90
9177;DHT22;4623;54.310;10.112;2022-08-26T05:06:57;20.30;99.90
9177;DHT22;4623;54.310;10.112;2022-08-26T05:09:23;20.30;99.90
9177;DHT22;4623;54.310;10.112;2022-08-26T05:11:50;20.40;99.90
9177;DHT22;4623;54.310;10.112;2022-08-26T05:14:16;20.40;99.90
9177;DHT22;4623;54.310;10.112;2022-08-26T05:16:42;20.40;99.90
9177;DHT22;4623;54.310;10.112;2022-08-26T05:19:08;20.40;99.90
9177;DHT22;4623;54.310;10.112;2022-08-26T05:21:35;20.40;99.90
9177;DHT22;4623;54.310;10.112;2022-08-26T05:24:01;20.40;99.90
9177;DHT22;4623;54.310;10.112;2022-08-26T05:26:28;20.40;99.90
9177;DHT22;4623;54.310;10.112;2022-08-26T05:28:55;20.50;99.90
9177;DHT22;4623;54.310;10.112;2022-08-26T05:31:30;20.50;99.90
9177;DHT22;4623;54.310;10.112;2022-08-26T05:33:56;20.40;99.90
9177;DHT22;4623;54.310;10.112;2022-08-26T05:36:24;20.40;99.90
9177;DHT22;4623;54.310;10.112;2022-08-26T05:38:50;20.50;99.90
9177;DHT22;4623;54.310;10.112;2022-08-26T05:41:19;20.60;99.90
9177;DHT22;4623;54.310;10.112;2022-08-26T05:43:46;20.50;99.90
9177;DHT22;4623;54.310;10.112;2022-08-26T05:46:12;20.50;99.90
9177;DHT22;4623;54.310;10.112;2022-08-26T05:48:39;20.60;99.90
9177;DHT22;4623;54.310;10.112;2022-08-26T05:51:07;20.60;99.90
9177;DHT22;4623;54.310;10.112;2022-08-26T05:53:34;20.60;99.90
9177;DHT22;4623;54.310;10.112;2022-08-26T05:55:59;20.70;99.90
9177;DHT22;4623;54.310;10.112;2022-08-26T05:58:26;20.70;99.90
9177;DHT22;4623;54.310;10.112;2022-08-26T06:01:00;20.70;99.90
9177;DHT22;4623;54.310;10.112;2022-08-26T06:03:27;20.80;99.90
9177;DHT22;4623;54.310;10.112;2022-08-26T06:05:52;20.80;99.90
9177;DHT22;4623;54.310;10.112;2022-08-26T06:08:18;20.80;99.90
9177;DHT22;4623;54.310;10.112;2022-08-26T06:10:53;20.80;99.90
9177;DHT22;4623;54.310;10.112;2022-08-26T06:13:22;20.80;99.90
9177;DHT22;4623;54.310;10.112;2022-08-26T06:15:49;20.90;99.90
9177;DHT22;4623;54.310;10.112;2022-08-26T06:18:21;20.90;99.90
9177;DHT22;4623;54.310;10.112;2022-08-26T06:20:48;21.00;99.90
9177;DHT22;4623;54.310;10.112;2022-08-26T06:23:15;21.00;99.90
9177;DHT22;4623;54.310;10.112;2022-08-26T06:26:00;21.10;99.90
9177;DHT22;4623;54.310;10.112;2022-08-26T06:28:26;21.20;99.90
9177;DHT22;4623;54.310;10.112;2022-08-26T06:30:52;21.30;99.90
9177;DHT22;4623;54.310;10.112;2022-08-26T06:33:21;21.40;99.90
9177;DHT22;4623;54.310;10.112;2022-08-26T06:35:47;21.40;99.90
9177;DHT22;4623;54.310;10.112;2022-08-26T06:38:13;21.50;99.90
9177;DHT22;4623;54.310;10.112;2022-08-26T06:40:46;21.50;99.90
9177;DHT22;4623;54.310;10.112;2022-08-26T06:43:14;21.60;99.90
9177;DHT22;4623;54.310;10.112;2022-08-26T06:45:42;21.70;99.90
9177;DHT22;4623;54.310;10.112;2022-08-26T06:48:13;21.80;99.90
9177;DHT22;4623;54.310;10.112;2022-08-26T06:50:40;21.80;99.90
9177;DHT22;4623;54.310;10.112;2022-08-26T06:53:06;21.90;99.90
9177;DHT22;4623;54.310;10.112;2022-08-26T06:55:33;22.00;99.90
9177;DHT22;4623;54.310;10.112;2022-08-26T06:58:03;22.00;99.90
9177;DHT22;4623;54.310;10.112;2022-08-26T07:00:28;22.00;99.90
9177;DHT22;4623;54.310;10.112;2022-08-26T07:02:56;22.00;99.90
9177;DHT22;4623;54.310;10.112;2022-08-26T07:05:22;21.90;99.90
9177;DHT22;4623;54.310;10.112;2022-08-26T07:07:48;21.90;99.90
9177;DHT22;4623;54.310;10.112;2022-08-26T07:10:14;21.90;99.90
9177;DHT22;4623;54.310;10.112;2022-08-26T07:12:40;21.80;99.90
9177;DHT22;4623;54.310;10.112;2022-08-26T07:15:06;21.80;99.90
9177;DHT22;4623;54.310;10.112;2022-08-26T07:17:31;21.80;99.90
9177;DHT22;4623;54.310;10.112;2022-08-26T07:19:57;21.90;99.90
9177;DHT22;4623;54.310;10.112;2022-08-26T07:22:22;21.90;99.90
9177;DHT22;4623;54.310;10.112;2022-08-26T07:24:48;22.00;99.90
9177;DHT22;4623;54.310;10.112;2022-08-26T07:27:15;22.00;99.90
9177;DHT22;4623;54.310;10.112;2022-08-26T07:29:41;22.20;99.90
9177;DHT22;4623;54.310;10.112;2022-08-26T07:32:12;22.40;99.90
9177;DHT22;4623;54.310;10.112;2022-08-26T07:34:39;22.60;99.90
9177;DHT22;4623;54.310;10.112;2022-08-26T07:37:05;22.70;99.90
9177;DHT22;4623;54.310;10.112;2022-08-26T07:39:31;22.90;99.90
9177;DHT22;4623;54.310;10.112;2022-08-26T07:41:58;22.90;99.90
9177;DHT22;4623;54.310;10.112;2022-08-26T07:44:24;23.00;99.90
9177;DHT22;4623;54.310;10.112;2022-08-26T07:46:51;23.10;99.90
9177;DHT22;4623;54.310;10.112;2022-08-26T07:49:17;23.10;99.90
9177;DHT22;4623;54.310;10.112;2022-08-26T07:51:43;23.10;99.90
9177;DHT22;4623;54.310;10.112;2022-08-26T07:54:09;23.00;99.90
9177;DHT22;4623;54.310;10.112;2022-08-26T07:56:34;23.10;99.90
9177;DHT22;4623;54.310;10.112;2022-08-26T07:59:00;23.10;99.90
9177;DHT22;4623;54.310;10.112;2022-08-26T08:01:26;23.20;99.90
9177;DHT22;4623;54.310;10.112;2022-08-26T08:03:54;23.30;99.90
9177;DHT22;4623;54.310;10.112;2022-08-26T08:06:21;23.40;99.90
9177;DHT22;4623;54.310;10.112;2022-08-26T08:08:47;23.50;99.90
9177;DHT22;4623;54.310;10.112;2022-08-26T08:11:13;23.50;99.90
9177;DHT22;4623;54.310;10.112;2022-08-26T08:13:39;23.70;99.90
9177;DHT22;4623;54.310;10.112;2022-08-26T08:16:05;23.80;99.90
9177;DHT22;4623;54.310;10.112;2022-08-26T08:18:32;24.00;99.90
9177;DHT22;4623;54.310;10.112;2022-08-26T08:20:57;24.00;99.90
9177;DHT22;4623;54.310;10.112;2022-08-26T08:23:26;24.20;99.90
9177;DHT22;4623;54.310;10.112;2022-08-26T08:25:59;24.30;99.90
9177;DHT22;4623;54.310;10.112;2022-08-26T08:28:25;24.30;99.90
9177;DHT22;4623;54.310;10.112;2022-08-26T08:30:51;24.40;99.90
9177;DHT22;4623;54.310;10.112;2022-08-26T08:33:17;24.50;99.90
9177;DHT22;4623;54.310;10.112;2022-08-26T08:35:42;24.50;99.90
9177;DHT22;4623;54.310;10.112;2022-08-26T08:38:10;24.60;99.90
9177;DHT22;4623;54.310;10.112;2022-08-26T08:40:39;24.70;99.90
9177;DHT22;4623;54.310;10.112;2022-08-26T08:43:09;24.80;99.90
9177;DHT22;4623;54.310;10.112;2022-08-26T08:48:12;24.90;99.90
9177;DHT22;4623;54.310;10.112;2022-08-26T08:50:52;25.00;99.90
9177;DHT22;4623;54.310;10.112;2022-08-26T08:53:23;25.10;99.90
9177;DHT22;4623;54.310;10.112;2022-08-26T09:04:26;26.20;99.90
9177;DHT22;4623;54.310;10.112;2022-08-26T09:06:57;26.30;99.90
9177;DHT22;4623;54.310;10.112;2022-08-26T09:09:34;26.40;99.90
9177;DHT22;4623;54.310;10.112;2022-08-26T09:12:01;26.40;99.90
9177;DHT22;4623;54.310;10.112;2022-08-26T09:14:27;26.40;99.90
9177;DHT22;4623;54.310;10.112;2022-08-26T09:17:00;26.60;99.90
9177;DHT22;4623;54.310;10.112;2022-08-26T09:19:34;26.70;99.90
9177;DHT22;4623;54.310;10.112;2022-08-26T09:22:02;26.80;99.90
9177;DHT22;4623;54.310;10.112;2022-08-26T09:24:29;26.80;99.90
9177;DHT22;4623;54.310;10.112;2022-08-26T09:26:56;26.60;99.90
9177;DHT22;4623;54.310;10.112;2022-08-26T09:29:27;26.40;99.90
9177;DHT22;4623;54.310;10.112;2022-08-26T09:32:13;26.40;99.90
9177;DHT22;4623;54.310;10.112;2022-08-26T09:34:59;26.40;99.90
9177;DHT22;4623;54.310;10.112;2022-08-26T09:37:52;26.30;99.90
9177;DHT22;4623;54.310;10.112;2022-08-26T09:40:34;26.10;99.90
9177;DHT22;4623;54.310;10.112;2022-08-26T09:43:04;26.20;99.90
9177;DHT22;4623;54.310;10.112;2022-08-26T09:45:30;26.30;99.90
9177;DHT22;4623;54.310;10.112;2022-08-26T09:47:56;26.60;99.90
9177;DHT22;4623;54.310;10.112;2022-08-26T09:55:33;28.80;99.90
9177;DHT22;4623;54.310;10.112;2022-08-26T09:57:59;28.80;99.90
9177;DHT22;4623;54.310;10.112;2022-08-26T10:00:41;28.50;99.90
9177;DHT22;4623;54.310;10.112;2022-08-26T10:03:12;28.30;99.90
9177;DHT22;4623;54.310;10.112;2022-08-26T10:06:02;28.10;99.90
9177;DHT22;4623;54.310;10.112;2022-08-26T10:08:41;27.90;99.90
9177;DHT22;4623;54.310;10.112;2022-08-26T10:14:13;27.40;99.90
9177;DHT22;4623;54.310;10.112;2022-08-26T10:16:51;27.30;99.90
9177;DHT22;4623;54.310;10.112;2022-08-26T10:19:23;27.20;99.90
9177;DHT22;4623;54.310;10.112;2022-08-26T10:21:59;27.50;99.90
9177;DHT22;4623;54.310;10.112;2022-08-26T10:24:31;27.60;99.90
9177;DHT22;4623;54.310;10.112;2022-08-26T10:27:35;27.80;99.90
9177;DHT22;4623;54.310;10.112;2022-08-26T10:30:09;27.80;99.90
9177;DHT22;4623;54.310;10.112;2022-08-26T10:32:39;27.70;99.90
9177;DHT22;4623;54.310;10.112;2022-08-26T10:35:08;27.60;99.90
9177;DHT22;4623;54.310;10.112;2022-08-26T10:38:07;27.70;99.90
9177;DHT22;4623;54.310;10.112;2022-08-26T10:40:45;27.90;99.90
9177;DHT22;4623;54.310;10.112;2022-08-26T10:43:21;28.10;99.90
9177;DHT22;4623;54.310;10.112;2022-08-26T10:45:53;29.20;99.90
9177;DHT22;4623;54.310;10.112;2022-08-26T10:49:08;29.50;99.90
9177;DHT22;4623;54.310;10.112;2022-08-26T10:51:25;29.20;99.90
9177;DHT22;4623;54.310;10.112;2022-08-26T10:57:18;28.90;99.90
9177;DHT22;4623;54.310;10.112;2022-08-26T10:59:58;29.30;99.90
9177;DHT22;4623;54.310;10.112;2022-08-26T11:02:48;29.10;99.90
9177;DHT22;4623;54.310;10.112;2022-08-26T11:05:20;28.90;99.90
9177;DHT22;4623;54.310;10.112;2022-08-26T11:07:52;28.80;99.90
9177;DHT22;4623;54.310;10.112;2022-08-26T11:12:47;28.70;99.90
9177;DHT22;4623;54.310;10.112;2022-08-26T11:22:50;29.00;99.90
9177;DHT22;4623;54.310;10.112;2022-08-26T11:25:19;30.10;99.90
9177;DHT22;4623;54.310;10.112;2022-08-26T11:35:10;30.60;99.90
9177;DHT22;4623;54.310;10.112;2022-08-26T11:40:17;29.60;99.90
9177;DHT22;4623;54.310;10.112;2022-08-26T11:43:10;29.40;99.90
9177;DHT22;4623;54.310;10.112;2022-08-26T11:45:45;29.10;99.90
9177;DHT22;4623;54.310;10.112;2022-08-26T11:48:17;29.10;99.90
9177;DHT22;4623;54.310;10.112;2022-08-26T11:50:59;28.90;99.90
9177;DHT22;4623;54.310;10.112;2022-08-26T11:53:27;28.80;99.90
9177;DHT22;4623;54.310;10.112;2022-08-26T11:55:56;28.50;99.90
9177;DHT22;4623;54.310;10.112;2022-08-26T11:58:23;28.50;99.90
9177;DHT22;4623;54.310;10.112;2022-08-26T12:00:55;28.40;99.90
9177;DHT22;4623;54.310;10.112;2022-08-26T12:09:00;28.00;99.90
9177;DHT22;4623;54.310;10.112;2022-08-26T12:11:29;27.90;99.90
9177;DHT22;4623;54.310;10.112;2022-08-26T12:13:58;27.80;99.90
9177;DHT22;4623;54.310;10.112;2022-08-26T12:16:30;27.80;99.90
9177;DHT22;4623;54.310;10.112;2022-08-26T12:18:56;27.80;99.90
9177;DHT22;4623;54.310;10.112;2022-08-26T12:21:26;27.80;99.90
9177;DHT22;4623;54.310;10.112;2022-08-26T12:23:56;27.80;99.90
9177;DHT22;4623;54.310;10.112;2022-08-26T12:26:29;27.80;99.90
9177;DHT22;4623;54.310;10.112;2022-08-26T12:31:43;27.60;99.90
9177;DHT22;4623;54.310;10.112;2022-08-26T12:34:11;27.50;99.90
9177;DHT22;4623;54.310;10.112;2022-08-26T12:36:54;27.40;99.90
9177;DHT22;4623;54.310;10.112;2022-08-26T12:39:28;27.30;99.90
9177;DHT22;4623;54.310;10.112;2022-08-26T12:41:57;27.10;99.90
9177;DHT22;4623;54.310;10.112;2022-08-26T12:44:36;27.10;99.90
9177;DHT22;4623;54.310;10.112;2022-08-26T12:47:09;27.00;99.90
9177;DHT22;4623;54.310;10.112;2022-08-26T12:49:38;26.90;99.90
9177;DHT22;4623;54.310;10.112;2022-08-26T12:52:08;26.90;99.90
9177;DHT22;4623;54.310;10.112;2022-08-26T12:55:16;26.80;99.90
9177;DHT22;4623;54.310;10.112;2022-08-26T12:57:42;26.70;99.90
9177;DHT22;4623;54.310;10.112;2022-08-26T13:00:33;26.70;99.90
9177;DHT22;4623;54.310;10.112;2022-08-26T13:03:00;26.70;99.90
9177;DHT22;4623;54.310;10.112;2022-08-26T13:05:33;26.70;99.90
9177;DHT22;4623;54.310;10.112;2022-08-26T13:08:23;26.70;99.90
9177;DHT22;4623;54.310;10.112;2022-08-26T13:11:02;26.60;99.90
9177;DHT22;4623;54.310;10.112;2022-08-26T13:13:29;26.50;99.90
9177;DHT22;4623;54.310;10.112;2022-08-26T13:15:55;26.50;99.90
9177;DHT22;4623;54.310;10.112;2022-08-26T13:18:20;26.40;99.90
9177;DHT22;4623;54.310;10.112;2022-08-26T13:20:46;26.30;99.90
9177;DHT22;4623;54.310;10.112;2022-08-26T13:23:12;26.30;99.90
9177;DHT22;4623;54.310;10.112;2022-08-26T13:25:38;26.30;99.90
9177;DHT22;4623;54.310;10.112;2022-08-26T13:28:03;26.20;99.90
9177;DHT22;4623;54.310;10.112;2022-08-26T13:30:29;26.20;99.90
9177;DHT22;4623;54.310;10.112;2022-08-26T13:32:57;26.20;99.90
9177;DHT22;4623;54.310;10.112;2022-08-26T13:35:24;26.10;99.90
9177;DHT22;4623;54.310;10.112;2022-08-26T13:37:49;26.00;99.90
9177;DHT22;4623;54.310;10.112;2022-08-26T13:40:15;25.90;99.90
9177;DHT22;4623;54.310;10.112;2022-08-26T13:42:41;25.80;99.90
9177;DHT22;4623;54.310;10.112;2022-08-26T13:45:07;25.80;99.90
9177;DHT22;4623;54.310;10.112;2022-08-26T13:47:33;25.80;99.90
9177;DHT22;4623;54.310;10.112;2022-08-26T13:49:59;25.80;99.90
9177;DHT22;4623;54.310;10.112;2022-08-26T13:52:24;25.80;99.90
9177;DHT22;4623;54.310;10.112;2022-08-26T13:54:50;25.80;99.90
9177;DHT22;4623;54.310;10.112;2022-08-26T13:57:16;25.80;99.90
9177;DHT22;4623;54.310;10.112;2022-08-26T13:59:42;25.80;99.90
9177;DHT22;4623;54.310;10.112;2022-08-26T14:02:07;25.90;99.90
9177;DHT22;4623;54.310;10.112;2022-08-26T14:04:33;26.00;99.90
9177;DHT22;4623;54.310;10.112;2022-08-26T14:06:59;26.10;99.90
9177;DHT22;4623;54.310;10.112;2022-08-26T14:09:24;26.20;99.90
9177;DHT22;4623;54.310;10.112;2022-08-26T14:11:50;26.40;99.90
9177;DHT22;4623;54.310;10.112;2022-08-26T14:14:18;26.60;99.90
9177;DHT22;4623;54.310;10.112;2022-08-26T14:16:44;26.80;99.90
9177;DHT22;4623;54.310;10.112;2022-08-26T14:19:09;26.90;99.90
9177;DHT22;4623;54.310;10.112;2022-08-26T14:21:37;27.00;99.90
9177;DHT22;4623;54.310;10.112;2022-08-26T14:24:04;27.10;99.90
9177;DHT22;4623;54.310;10.112;2022-08-26T14:26:30;27.20;99.90
9177;DHT22;4623;54.310;10.112;2022-08-26T14:28:59;27.30;99.90
9177;DHT22;4623;54.310;10.112;2022-08-26T14:31:26;27.40;99.90
9177;DHT22;4623;54.310;10.112;2022-08-26T14:33:56;27.40;99.90
9177;DHT22;4623;54.310;10.112;2022-08-26T14:36:22;27.40;99.90
9177;DHT22;4623;54.310;10.112;2022-08-26T14:39:08;27.30;99.90
9177;DHT22;4623;54.310;10.112;2022-08-26T14:41:39;27.30;99.90
9177;DHT22;4623;54.310;10.112;2022-08-26T14:44:10;27.20;99.90
9177;DHT22;4623;54.310;10.112;2022-08-26T14:46:44;27.20;99.90
9177;DHT22;4623;54.310;10.112;2022-08-26T14:49:11;27.20;99.90
9177;DHT22;4623;54.310;10.112;2022-08-26T14:51:37;27.20;99.90
9177;DHT22;4623;54.310;10.112;2022-08-26T14:54:03;27.20;99.90
9177;DHT22;4623;54.310;10.112;2022-08-26T14:56:52;27.20;99.90
9177;DHT22;4623;54.310;10.112;2022-08-26T14:59:44;27.10;99.90
9177;DHT22;4623;54.310;10.112;2022-08-26T15:02:12;27.10;99.90
9177;DHT22;4623;54.310;10.112;2022-08-26T15:04:38;27.00;99.90
9177;DHT22;4623;54.310;10.112;2022-08-26T15:07:05;26.90;99.90
9177;DHT22;4623;54.310;10.112;2022-08-26T15:09:34;26.90;99.90
9177;DHT22;4623;54.310;10.112;2022-08-26T15:12:00;26.90;99.90
9177;DHT22;4623;54.310;10.112;2022-08-26T15:14:25;26.80;99.90
9177;DHT22;4623;54.310;10.112;2022-08-26T15:16:54;26.80;99.90
9177;DHT22;4623;54.310;10.112;2022-08-26T15:19:21;26.80;99.90
9177;DHT22;4623;54.310;10.112;2022-08-26T15:21:48;26.80;99.90
9177;DHT22;4623;54.310;10.112;2022-08-26T15:24:17;26.90;99.90
9177;DHT22;4623;54.310;10.112;2022-08-26T15:26:43;26.90;99.90
9177;DHT22;4623;54.310;10.112;2022-08-26T15:29:09;26.90;99.90
9177;DHT22;4623;54.310;10.112;2022-08-26T15:31:34;26.80;99.90
9177;DHT22;4623;54.310;10.112;2022-08-26T15:34:04;26.80;99.90
9177;DHT22;4623;54.310;10.112;2022-08-26T15:36:31;26.80;99.90
9177;DHT22;4623;54.310;10.112;2022-08-26T15:38:59;26.70;99.90
9177;DHT22;4623;54.310;10.112;2022-08-26T15:41:25;26.60;99.90
9177;DHT22;4623;54.310;10.112;2022-08-26T15:43:51;26.70;99.90
9177;DHT22;4623;54.310;10.112;2022-08-26T15:46:17;26.70;99.90
9177;DHT22;4623;54.310;10.112;2022-08-26T15:48:43;26.80;99.90
9177;DHT22;4623;54.310;10.112;2022-08-26T15:53:44;26.80;99.90
9177;DHT22;4623;54.310;10.112;2022-08-26T15:56:10;26.70;99.90
9177;DHT22;4623;54.310;10.112;2022-08-26T15:58:36;26.70;99.90
9177;DHT22;4623;54.310;10.112;2022-08-26T16:01:02;26.70;99.90
9177;DHT22;4623;54.310;10.112;2022-08-26T16:03:27;26.60;99.90
9177;DHT22;4623;54.310;10.112;2022-08-26T16:05:53;26.60;99.90
9177;DHT22;4623;54.310;10.112;2022-08-26T16:08:19;26.50;99.90
9177;DHT22;4623;54.310;10.112;2022-08-26T16:10:46;26.50;99.90
9177;DHT22;4623;54.310;10.112;2022-08-26T16:13:12;26.40;99.90
9177;DHT22;4623;54.310;10.112;2022-08-26T16:15:38;26.30;99.90
9177;DHT22;4623;54.310;10.112;2022-08-26T16:18:05;26.20;99.90
9177;DHT22;4623;54.310;10.112;2022-08-26T16:20:33;26.10;99.90
9177;DHT22;4623;54.310;10.112;2022-08-26T16:22:59;26.10;99.90
9177;DHT22;4623;54.310;10.112;2022-08-26T16:25:26;26.00;99.90
9177;DHT22;4623;54.310;10.112;2022-08-26T16:27:52;26.00;99.90
9177;DHT22;4623;54.310;10.112;2022-08-26T16:30:19;25.80;99.90
9177;DHT22;4623;54.310;10.112;2022-08-26T16:32:45;25.70;99.90
9177;DHT22;4623;54.310;10.112;2022-08-26T16:35:11;25.50;99.90
9177;DHT22;4623;54.310;10.112;2022-08-26T16:37:36;25.50;99.90
9177;DHT22;4623;54.310;10.112;2022-08-26T16:40:03;25.40;99.90
9177;DHT22;4623;54.310;10.112;2022-08-26T16:42:29;25.50;99.90
9177;DHT22;4623;54.310;10.112;2022-08-26T16:44:55;25.40;99.90
9177;DHT22;4623;54.310;10.112;2022-08-26T16:47:20;25.40;99.90
9177;DHT22;4623;54.310;10.112;2022-08-26T16:49:47;25.40;99.90